sensor_id;sensor_type;location;lat;lon;timestamp;temperature;humidity
61412;DHT22;47278;49.732;7.690;2022-09-06T00:01:53;16.00;99.90
61412;DHT22;47278;49.732;7.690;2022-09-06T00:04:18;16.00;99.90
61412;DHT22;47278;49.732;7.690;2022-09-06T00:06:44;16.00;99.90
61412;DHT22;47278;49.732;7.690;2022-09-06T00:09:09;16.00;99.90
61412;DHT22;47278;49.732;7.690;2022-09-06T00:11:35;16.00;99.90
61412;DHT22;47278;49.732;7.690;2022-09-06T00:14:00;16.10;99.90
61412;DHT22;47278;49.732;7.690;2022-09-06T00:16:26;16.10;99.90
61412;DHT22;47278;49.732;7.690;2022-09-06T00:18:52;16.10;99.90
61412;DHT22;47278;49.732;7.690;2022-09-06T00:21:22;16.10;99.90
61412;DHT22;47278;49.732;7.690;2022-09-06T00:23:48;16.10;99.90
61412;DHT22;47278;49.732;7.690;2022-09-06T00:26:14;16.20;99.90
61412;DHT22;47278;49.732;7.690;2022-09-06T00:28:40;16.20;99.90
61412;DHT22;47278;49.732;7.690;2022-09-06T00:31:19;16.20;99.90
61412;DHT22;47278;49.732;7.690;2022-09-06T00:33:45;16.20;99.90
61412;DHT22;47278;49.732;7.690;2022-09-06T00:36:11;16.30;99.90
61412;DHT22;47278;49.732;7.690;2022-09-06T00:38:37;16.30;99.90
61412;DHT22;47278;49.732;7.690;2022-09-06T00:41:03;16.40;99.90
61412;DHT22;47278;49.732;7.690;2022-09-06T00:43:29;16.80;99.90
61412;DHT22;47278;49.732;7.690;2022-09-06T00:45:55;17.00;99.90
61412;DHT22;47278;49.732;7.690;2022-09-06T00:48:20;17.10;99.90
61412;DHT22;47278;49.732;7.690;2022-09-06T00:50:47;17.00;99.90
61412;DHT22;47278;49.732;7.690;2022-09-06T00:53:13;17.00;99.90
61412;DHT22;47278;49.732;7.690;2022-09-06T00:55:39;18.50;99.90
61412;DHT22;47278;49.732;7.690;2022-09-06T00:58:07;18.80;99.90
61412;DHT22;47278;49.732;7.690;2022-09-06T01:00:33;18.70;99.90
61412;DHT22;47278;49.732;7.690;2022-09-06T01:02:58;18.40;99.90
61412;DHT22;47278;49.732;7.690;2022-09-06T01:05:26;18.20;99.90
61412;DHT22;47278;49.732;7.690;2022-09-06T01:10:53;18.20;99.90
61412;DHT22;47278;49.732;7.690;2022-09-06T01:13:23;18.20;99.90
61412;DHT22;47278;49.732;7.690;2022-09-06T01:30:33;18.00;99.90
61412;DHT22;47278;49.732;7.690;2022-09-06T01:33:23;18.00;99.90
61412;DHT22;47278;49.732;7.690;2022-09-06T01:35:57;17.90;99.90
61412;DHT22;47278;49.732;7.690;2022-09-06T01:38:24;17.70;99.90
61412;DHT22;47278;49.732;7.690;2022-09-06T01:40:50;17.60;99.90
61412;DHT22;47278;49.732;7.690;2022-09-06T01:43:19;17.50;99.90
61412;DHT22;47278;49.732;7.690;2022-09-06T01:48:23;17.50;99.90
61412;DHT22;47278;49.732;7.690;2022-09-06T01:53:32;17.50;99.90
61412;DHT22;47278;49.732;7.690;2022-09-06T02:06:16;17.50;99.90
61412;DHT22;47278;49.732;7.690;2022-09-06T02:08:53;17.50;99.90
61412;DHT22;47278;49.732;7.690;2022-09-06T02:11:20;17.50;99.90
61412;DHT22;47278;49.732;7.690;2022-09-06T02:14:00;17.40;99.90
61412;DHT22;47278;49.732;7.690;2022-09-06T02:16:28;17.50;99.90
61412;DHT22;47278;49.732;7.690;2022-09-06T02:18:58;17.50;99.90
61412;DHT22;47278;49.732;7.690;2022-09-06T02:21:27;17.50;99.90
61412;DHT22;47278;49.732;7.690;2022-09-06T02:23:54;17.50;99.90
61412;DHT22;47278;49.732;7.690;2022-09-06T02:26:20;17.50;99.90
61412;DHT22;47278;49.732;7.690;2022-09-06T02:28:47;17.50;99.90
61412;DHT22;47278;49.732;7.690;2022-09-06T02:31:19;17.40;99.90
61412;DHT22;47278;49.732;7.690;2022-09-06T02:33:46;17.40;99.90
61412;DHT22;47278;49.732;7.690;2022-09-06T02:36:13;17.30;99.90
61412;DHT22;47278;49.732;7.690;2022-09-06T02:38:40;17.40;99.90
61412;DHT22;47278;49.732;7.690;2022-09-06T02:41:06;17.30;99.90
61412;DHT22;47278;49.732;7.690;2022-09-06T02:43:32;17.30;99.90
61412;DHT22;47278;49.732;7.690;2022-09-06T02:45:58;17.40;99.90
61412;DHT22;47278;49.732;7.690;2022-09-06T02:48:23;17.40;99.90
61412;DHT22;47278;49.732;7.690;2022-09-06T02:50:49;17.40;99.90
61412;DHT22;47278;49.732;7.690;2022-09-06T02:53:15;17.40;99.90
61412;DHT22;47278;49.732;7.690;2022-09-06T02:55:40;17.50;99.90
61412;DHT22;47278;49.732;7.690;2022-09-06T02:58:07;17.50;99.90
61412;DHT22;47278;49.732;7.690;2022-09-06T03:00:33;17.40;99.90
61412;DHT22;47278;49.732;7.690;2022-09-06T03:02:59;17.40;99.90
61412;DHT22;47278;49.732;7.690;2022-09-06T03:05:25;17.30;99.90
61412;DHT22;47278;49.732;7.690;2022-09-06T03:07:51;17.20;99.90
61412;DHT22;47278;49.732;7.690;2022-09-06T03:10:17;17.20;99.90
61412;DHT22;47278;49.732;7.690;2022-09-06T03:12:43;17.20;99.90
61412;DHT22;47278;49.732;7.690;2022-09-06T03:15:09;17.10;99.90
61412;DHT22;47278;49.732;7.690;2022-09-06T03:17:35;17.00;99.90
61412;DHT22;47278;49.732;7.690;2022-09-06T03:20:01;17.00;99.90
61412;DHT22;47278;49.732;7.690;2022-09-06T03:22:26;16.90;99.90
61412;DHT22;47278;49.732;7.690;2022-09-06T03:24:52;16.80;99.90
61412;DHT22;47278;49.732;7.690;2022-09-06T03:27:17;16.70;99.90
61412;DHT22;47278;49.732;7.690;2022-09-06T03:29:43;16.80;99.90
61412;DHT22;47278;49.732;7.690;2022-09-06T03:32:08;16.80;99.90
61412;DHT22;47278;49.732;7.690;2022-09-06T03:34:34;16.90;99.90
61412;DHT22;47278;49.732;7.690;2022-09-06T03:36:59;16.90;99.90
61412;DHT22;47278;49.732;7.690;2022-09-06T03:39:25;16.80;99.90
61412;DHT22;47278;49.732;7.690;2022-09-06T03:41:50;16.70;99.90
61412;DHT22;47278;49.732;7.690;2022-09-06T03:44:16;16.70;99.90
61412;DHT22;47278;49.732;7.690;2022-09-06T03:46:42;16.60;99.90
61412;DHT22;47278;49.732;7.690;2022-09-06T03:49:07;16.50;99.90
61412;DHT22;47278;49.732;7.690;2022-09-06T03:51:34;16.50;99.90
61412;DHT22;47278;49.732;7.690;2022-09-06T03:54:00;16.40;99.90
61412;DHT22;47278;49.732;7.690;2022-09-06T03:56:25;16.30;99.90
61412;DHT22;47278;49.732;7.690;2022-09-06T03:58:51;16.30;99.90
61412;DHT22;47278;49.732;7.690;2022-09-06T04:01:17;16.20;99.90
61412;DHT22;47278;49.732;7.690;2022-09-06T04:03:42;16.20;99.90
61412;DHT22;47278;49.732;7.690;2022-09-06T04:06:08;16.20;99.90
61412;DHT22;47278;49.732;7.690;2022-09-06T04:08:34;16.10;99.90
61412;DHT22;47278;49.732;7.690;2022-09-06T04:11:00;16.10;99.90
61412;DHT22;47278;49.732;7.690;2022-09-06T04:13:26;16.10;99.90
61412;DHT22;47278;49.732;7.690;2022-09-06T04:15:51;16.00;99.90
61412;DHT22;47278;49.732;7.690;2022-09-06T04:18:17;15.90;99.90
61412;DHT22;47278;49.732;7.690;2022-09-06T04:20:44;16.00;99.90
61412;DHT22;47278;49.732;7.690;2022-09-06T04:23:10;16.00;99.90
61412;DHT22;47278;49.732;7.690;2022-09-06T04:25:35;15.90;99.90
61412;DHT22;47278;49.732;7.690;2022-09-06T04:28:01;15.80;99.90
61412;DHT22;47278;49.732;7.690;2022-09-06T04:30:27;15.80;99.90
61412;DHT22;47278;49.732;7.690;2022-09-06T04:32:52;15.70;99.90
61412;DHT22;47278;49.732;7.690;2022-09-06T04:35:18;15.60;99.90
61412;DHT22;47278;49.732;7.690;2022-09-06T04:37:43;15.60;99.90
61412;DHT22;47278;49.732;7.690;2022-09-06T04:40:09;15.60;99.90
61412;DHT22;47278;49.732;7.690;2022-09-06T04:42:34;15.60;99.90
61412;DHT22;47278;49.732;7.690;2022-09-06T04:45:00;15.60;99.90
61412;DHT22;47278;49.732;7.690;2022-09-06T04:47:25;15.50;99.90
61412;DHT22;47278;49.732;7.690;2022-09-06T04:49:51;15.50;99.90
61412;DHT22;47278;49.732;7.690;2022-09-06T04:52:17;15.40;99.90
61412;DHT22;47278;49.732;7.690;2022-09-06T04:54:43;15.50;99.90
61412;DHT22;47278;49.732;7.690;2022-09-06T04:57:09;15.40;99.90
61412;DHT22;47278;49.732;7.690;2022-09-06T04:59:34;15.40;99.90
61412;DHT22;47278;49.732;7.690;2022-09-06T05:02:00;15.40;99.90
61412;DHT22;47278;49.732;7.690;2022-09-06T05:04:26;15.40;99.90
61412;DHT22;47278;49.732;7.690;2022-09-06T05:06:58;15.40;99.90
61412;DHT22;47278;49.732;7.690;2022-09-06T05:09:24;15.40;99.90
61412;DHT22;47278;49.732;7.690;2022-09-06T05:11:49;13.50;99.90
61412;DHT22;47278;49.732;7.690;2022-09-06T05:14:15;15.50;99.90
61412;DHT22;47278;49.732;7.690;2022-09-06T05:16:40;15.60;99.90
61412;DHT22;47278;49.732;7.690;2022-09-06T05:19:06;15.60;99.90
61412;DHT22;47278;49.732;7.690;2022-09-06T05:21:31;15.70;99.90
61412;DHT22;47278;49.732;7.690;2022-09-06T05:23:57;15.80;99.90
61412;DHT22;47278;49.732;7.690;2022-09-06T05:26:22;15.70;99.90
61412;DHT22;47278;49.732;7.690;2022-09-06T05:28:48;15.80;99.90
61412;DHT22;47278;49.732;7.690;2022-09-06T05:31:32;15.90;99.90
61412;DHT22;47278;49.732;7.690;2022-09-06T05:33:58;16.10;99.90
61412;DHT22;47278;49.732;7.690;2022-09-06T05:36:24;16.10;99.90
61412;DHT22;47278;49.732;7.690;2022-09-06T05:38:51;16.20;99.90
61412;DHT22;47278;49.732;7.690;2022-09-06T05:41:16;16.30;99.90
61412;DHT22;47278;49.732;7.690;2022-09-06T05:43:42;16.30;99.90
61412;DHT22;47278;49.732;7.690;2022-09-06T05:46:08;16.30;99.90
61412;DHT22;47278;49.732;7.690;2022-09-06T05:48:36;16.30;99.90
61412;DHT22;47278;49.732;7.690;2022-09-06T05:51:08;18.70;99.90
61412;DHT22;47278;49.732;7.690;2022-09-06T05:53:39;16.20;99.90
61412;DHT22;47278;49.732;7.690;2022-09-06T05:56:06;16.30;99.90
61412;DHT22;47278;49.732;7.690;2022-09-06T05:58:32;16.20;99.90
61412;DHT22;47278;49.732;7.690;2022-09-06T06:03:39;16.40;99.90
61412;DHT22;47278;49.732;7.690;2022-09-06T06:06:05;16.40;99.90
61412;DHT22;47278;49.732;7.690;2022-09-06T06:08:33;16.50;99.90
61412;DHT22;47278;49.732;7.690;2022-09-06T06:10:59;16.50;99.90
61412;DHT22;47278;49.732;7.690;2022-09-06T06:13:27;16.50;99.90
61412;DHT22;47278;49.732;7.690;2022-09-06T06:15:54;16.50;99.90
61412;DHT22;47278;49.732;7.690;2022-09-06T06:18:21;16.60;99.90
61412;DHT22;47278;49.732;7.690;2022-09-06T06:20:46;16.60;99.90
61412;DHT22;47278;49.732;7.690;2022-09-06T06:23:14;16.60;99.90
61412;DHT22;47278;49.732;7.690;2022-09-06T06:25:39;16.50;99.90
61412;DHT22;47278;49.732;7.690;2022-09-06T06:28:05;16.50;99.90
61412;DHT22;47278;49.732;7.690;2022-09-06T06:30:31;16.60;99.90
61412;DHT22;47278;49.732;7.690;2022-09-06T06:32:56;16.50;99.90
61412;DHT22;47278;49.732;7.690;2022-09-06T06:35:23;16.60;99.90
61412;DHT22;47278;49.732;7.690;2022-09-06T06:37:49;16.70;99.90
61412;DHT22;47278;49.732;7.690;2022-09-06T06:40:14;16.70;99.90
61412;DHT22;47278;49.732;7.690;2022-09-06T06:42:40;16.80;99.90
61412;DHT22;47278;49.732;7.690;2022-09-06T06:45:06;16.90;99.90
61412;DHT22;47278;49.732;7.690;2022-09-06T06:47:31;17.10;99.90
61412;DHT22;47278;49.732;7.690;2022-09-06T06:49:57;17.10;99.90
61412;DHT22;47278;49.732;7.690;2022-09-06T06:52:22;17.20;99.90
61412;DHT22;47278;49.732;7.690;2022-09-06T06:54:48;17.30;99.90
61412;DHT22;47278;49.732;7.690;2022-09-06T06:57:14;17.40;99.90
61412;DHT22;47278;49.732;7.690;2022-09-06T06:59:39;17.30;99.90
61412;DHT22;47278;49.732;7.690;2022-09-06T07:02:05;17.30;99.90
61412;DHT22;47278;49.732;7.690;2022-09-06T07:04:31;17.50;99.90
61412;DHT22;47278;49.732;7.690;2022-09-06T07:06:56;17.60;99.90
61412;DHT22;47278;49.732;7.690;2022-09-06T07:09:22;17.70;99.90
61412;DHT22;47278;49.732;7.690;2022-09-06T07:11:48;17.60;99.90
61412;DHT22;47278;49.732;7.690;2022-09-06T07:14:16;17.70;99.90
61412;DHT22;47278;49.732;7.690;2022-09-06T07:16:42;17.50;99.90
61412;DHT22;47278;49.732;7.690;2022-09-06T07:19:07;17.50;99.90
61412;DHT22;47278;49.732;7.690;2022-09-06T07:21:33;17.60;99.90
61412;DHT22;47278;49.732;7.690;2022-09-06T07:23:58;15.70;99.90
61412;DHT22;47278;49.732;7.690;2022-09-06T07:26:25;17.30;99.90
61412;DHT22;47278;49.732;7.690;2022-09-06T07:28:56;17.30;99.90
61412;DHT22;47278;49.732;7.690;2022-09-06T07:31:22;17.30;99.90
61412;DHT22;47278;49.732;7.690;2022-09-06T07:33:48;17.40;99.90
61412;DHT22;47278;49.732;7.690;2022-09-06T07:36:14;17.40;99.90
61412;DHT22;47278;49.732;7.690;2022-09-06T07:38:39;17.50;99.90
61412;DHT22;47278;49.732;7.690;2022-09-06T07:41:06;17.60;99.90
61412;DHT22;47278;49.732;7.690;2022-09-06T07:43:31;17.60;99.90
61412;DHT22;47278;49.732;7.690;2022-09-06T07:46:07;17.80;99.90
61412;DHT22;47278;49.732;7.690;2022-09-06T07:48:34;18.00;99.90
61412;DHT22;47278;49.732;7.690;2022-09-06T07:51:09;18.00;99.90
61412;DHT22;47278;49.732;7.690;2022-09-06T07:53:36;18.00;99.90
61412;DHT22;47278;49.732;7.690;2022-09-06T07:56:03;17.90;99.90
61412;DHT22;47278;49.732;7.690;2022-09-06T07:58:29;17.90;99.90
61412;DHT22;47278;49.732;7.690;2022-09-06T08:03:39;17.80;99.90
61412;DHT22;47278;49.732;7.690;2022-09-06T08:06:05;17.90;99.90
61412;DHT22;47278;49.732;7.690;2022-09-06T08:08:30;17.90;99.90
61412;DHT22;47278;49.732;7.690;2022-09-06T08:10:56;17.90;99.90
61412;DHT22;47278;49.732;7.690;2022-09-06T08:13:23;17.90;99.90
61412;DHT22;47278;49.732;7.690;2022-09-06T08:15:56;18.10;99.90
61412;DHT22;47278;49.732;7.690;2022-09-06T08:18:21;18.10;99.90
61412;DHT22;47278;49.732;7.690;2022-09-06T08:20:47;18.20;99.90
61412;DHT22;47278;49.732;7.690;2022-09-06T08:23:12;18.30;99.90
61412;DHT22;47278;49.732;7.690;2022-09-06T08:25:38;18.40;99.90
61412;DHT22;47278;49.732;7.690;2022-09-06T08:28:03;18.40;99.90
61412;DHT22;47278;49.732;7.690;2022-09-06T08:30:29;18.60;99.90
61412;DHT22;47278;49.732;7.690;2022-09-06T08:32:54;18.80;99.90
61412;DHT22;47278;49.732;7.690;2022-09-06T08:35:21;18.90;99.90
61412;DHT22;47278;49.732;7.690;2022-09-06T08:37:46;19.10;99.90
61412;DHT22;47278;49.732;7.690;2022-09-06T08:40:12;19.30;99.90
61412;DHT22;47278;49.732;7.690;2022-09-06T08:42:40;19.50;99.90
61412;DHT22;47278;49.732;7.690;2022-09-06T08:45:06;19.70;99.90
61412;DHT22;47278;49.732;7.690;2022-09-06T08:47:36;19.80;99.90
61412;DHT22;47278;49.732;7.690;2022-09-06T08:50:04;19.90;99.90
61412;DHT22;47278;49.732;7.690;2022-09-06T08:52:33;20.00;99.90
61412;DHT22;47278;49.732;7.690;2022-09-06T09:00:13;20.60;99.90
61412;DHT22;47278;49.732;7.690;2022-09-06T09:02:46;20.80;99.90
61412;DHT22;47278;49.732;7.690;2022-09-06T09:05:24;21.00;99.90
61412;DHT22;47278;49.732;7.690;2022-09-06T09:12:50;21.40;99.90
61412;DHT22;47278;49.732;7.690;2022-09-06T09:15:16;21.70;99.90
61412;DHT22;47278;49.732;7.690;2022-09-06T09:17:43;21.80;99.90
61412;DHT22;47278;49.732;7.690;2022-09-06T09:20:09;21.90;99.90
61412;DHT22;47278;49.732;7.690;2022-09-06T09:22:35;22.20;99.90
61412;DHT22;47278;49.732;7.690;2022-09-06T09:25:01;22.40;99.90
61412;DHT22;47278;49.732;7.690;2022-09-06T09:27:26;22.40;99.90
61412;DHT22;47278;49.732;7.690;2022-09-06T09:32:37;22.80;99.90
61412;DHT22;47278;49.732;7.690;2022-09-06T09:37:41;23.10;99.90
61412;DHT22;47278;49.732;7.690;2022-09-06T09:40:17;23.00;99.90
61412;DHT22;47278;49.732;7.690;2022-09-06T09:42:51;23.20;99.90
61412;DHT22;47278;49.732;7.690;2022-09-06T09:45:26;23.50;99.90
61412;DHT22;47278;49.732;7.690;2022-09-06T09:47:52;23.60;99.90
61412;DHT22;47278;49.732;7.690;2022-09-06T09:50:22;23.50;99.90
61412;DHT22;47278;49.732;7.690;2022-09-06T09:52:48;23.70;99.90
61412;DHT22;47278;49.732;7.690;2022-09-06T09:55:13;23.80;99.90
61412;DHT22;47278;49.732;7.690;2022-09-06T09:57:43;24.30;99.90
61412;DHT22;47278;49.732;7.690;2022-09-06T10:00:10;24.60;99.90
61412;DHT22;47278;49.732;7.690;2022-09-06T10:02:41;24.50;99.90
61412;DHT22;47278;49.732;7.690;2022-09-06T10:07:40;24.80;99.90
61412;DHT22;47278;49.732;7.690;2022-09-06T10:10:10;24.60;99.90
61412;DHT22;47278;49.732;7.690;2022-09-06T10:12:37;24.80;99.90
61412;DHT22;47278;49.732;7.690;2022-09-06T10:15:07;24.50;99.90
61412;DHT22;47278;49.732;7.690;2022-09-06T10:17:37;24.60;99.90
61412;DHT22;47278;49.732;7.690;2022-09-06T10:20:09;24.80;99.90
61412;DHT22;47278;49.732;7.690;2022-09-06T10:30:28;25.50;99.90
61412;DHT22;47278;49.732;7.690;2022-09-06T10:33:01;25.40;99.90
61412;DHT22;47278;49.732;7.690;2022-09-06T10:35:31;25.50;99.90
61412;DHT22;47278;49.732;7.690;2022-09-06T10:38:44;26.10;99.90
61412;DHT22;47278;49.732;7.690;2022-09-06T10:40:53;26.00;99.90
61412;DHT22;47278;49.732;7.690;2022-09-06T10:43:20;26.00;99.90
61412;DHT22;47278;49.732;7.690;2022-09-06T10:45:57;25.90;99.90
61412;DHT22;47278;49.732;7.690;2022-09-06T10:53:23;26.10;99.90
61412;DHT22;47278;49.732;7.690;2022-09-06T10:55:56;26.60;99.90
61412;DHT22;47278;49.732;7.690;2022-09-06T10:58:26;26.60;99.90
61412;DHT22;47278;49.732;7.690;2022-09-06T11:00:54;26.60;99.90
61412;DHT22;47278;49.732;7.690;2022-09-06T11:03:29;27.10;99.90
61412;DHT22;47278;49.732;7.690;2022-09-06T11:06:06;27.10;99.90
61412;DHT22;47278;49.732;7.690;2022-09-06T11:10:58;27.20;99.90
61412;DHT22;47278;49.732;7.690;2022-09-06T11:13:27;27.40;99.90
61412;DHT22;47278;49.732;7.690;2022-09-06T11:21:43;27.60;99.90
61412;DHT22;47278;49.732;7.690;2022-09-06T11:23:47;27.80;99.90
61412;DHT22;47278;49.732;7.690;2022-09-06T11:28:58;27.80;99.90
61412;DHT22;47278;49.732;7.690;2022-09-06T11:31:26;28.10;99.90
61412;DHT22;47278;49.732;7.690;2022-09-06T11:34:11;28.30;99.90
61412;DHT22;47278;49.732;7.690;2022-09-06T11:36:50;28.00;99.90
61412;DHT22;47278;49.732;7.690;2022-09-06T11:39:24;28.40;99.90
61412;DHT22;47278;49.732;7.690;2022-09-06T11:41:50;28.40;99.90
61412;DHT22;47278;49.732;7.690;2022-09-06T11:44:49;28.40;99.90
61412;DHT22;47278;49.732;7.690;2022-09-06T11:47:01;28.40;99.90
61412;DHT22;47278;49.732;7.690;2022-09-06T11:49:28;28.30;99.90
61412;DHT22;47278;49.732;7.690;2022-09-06T11:51:55;28.70;99.90
61412;DHT22;47278;49.732;7.690;2022-09-06T11:54:22;28.50;99.90
61412;DHT22;47278;49.732;7.690;2022-09-06T11:56:58;28.90;99.90
61412;DHT22;47278;49.732;7.690;2022-09-06T12:02:01;29.10;99.90
61412;DHT22;47278;49.732;7.690;2022-09-06T12:07:11;29.10;99.90
61412;DHT22;47278;49.732;7.690;2022-09-06T12:09:38;29.10;99.90
61412;DHT22;47278;49.732;7.690;2022-09-06T12:12:04;29.30;99.90
61412;DHT22;47278;49.732;7.690;2022-09-06T12:14:31;29.40;99.90
61412;DHT22;47278;49.732;7.690;2022-09-06T12:24:50;29.50;99.90
61412;DHT22;47278;49.732;7.690;2022-09-06T12:27:16;30.00;99.90
61412;DHT22;47278;49.732;7.690;2022-09-06T12:29:53;30.00;99.90
61412;DHT22;47278;49.732;7.690;2022-09-06T12:35:13;30.00;99.90
61412;DHT22;47278;49.732;7.690;2022-09-06T12:37:51;29.60;99.90
61412;DHT22;47278;49.732;7.690;2022-09-06T12:40:18;29.80;99.90
61412;DHT22;47278;49.732;7.690;2022-09-06T12:42:45;30.00;99.90
61412;DHT22;47278;49.732;7.690;2022-09-06T12:45:11;29.20;99.90
61412;DHT22;47278;49.732;7.690;2022-09-06T12:47:36;29.60;99.90
61412;DHT22;47278;49.732;7.690;2022-09-06T12:50:05;30.10;99.90
61412;DHT22;47278;49.732;7.690;2022-09-06T12:52:31;29.50;99.90
61412;DHT22;47278;49.732;7.690;2022-09-06T12:54:57;29.70;99.90
61412;DHT22;47278;49.732;7.690;2022-09-06T12:57:23;29.90;99.90
61412;DHT22;47278;49.732;7.690;2022-09-06T12:59:50;30.50;99.90
61412;DHT22;47278;49.732;7.690;2022-09-06T13:02:18;30.60;99.90
61412;DHT22;47278;49.732;7.690;2022-09-06T13:04:46;30.20;99.90
61412;DHT22;47278;49.732;7.690;2022-09-06T13:07:14;30.60;99.90
61412;DHT22;47278;49.732;7.690;2022-09-06T13:09:41;30.10;99.90
61412;DHT22;47278;49.732;7.690;2022-09-06T13:12:08;30.30;99.90
61412;DHT22;47278;49.732;7.690;2022-09-06T13:14:38;30.40;99.90
61412;DHT22;47278;49.732;7.690;2022-09-06T13:17:04;30.60;99.90
61412;DHT22;47278;49.732;7.690;2022-09-06T13:21:58;30.50;99.90
61412;DHT22;47278;49.732;7.690;2022-09-06T13:26:59;30.50;99.90
61412;DHT22;47278;49.732;7.690;2022-09-06T13:29:29;30.50;99.90
61412;DHT22;47278;49.732;7.690;2022-09-06T13:31:56;30.40;99.90
61412;DHT22;47278;49.732;7.690;2022-09-06T13:34:28;30.60;99.90
61412;DHT22;47278;49.732;7.690;2022-09-06T13:36:58;31.00;99.90
61412;DHT22;47278;49.732;7.690;2022-09-06T13:39:37;32.10;99.90
61412;DHT22;47278;49.732;7.690;2022-09-06T13:42:22;30.70;99.90
61412;DHT22;47278;49.732;7.690;2022-09-06T13:44:48;30.80;99.90
61412;DHT22;47278;49.732;7.690;2022-09-06T13:47:15;30.50;99.90
61412;DHT22;47278;49.732;7.690;2022-09-06T13:49:41;30.70;99.90
61412;DHT22;47278;49.732;7.690;2022-09-06T13:52:06;30.50;99.90
61412;DHT22;47278;49.732;7.690;2022-09-06T13:54:32;30.70;99.90
61412;DHT22;47278;49.732;7.690;2022-09-06T13:56:58;30.90;99.90
61412;DHT22;47278;49.732;7.690;2022-09-06T13:59:24;30.90;99.90
61412;DHT22;47278;49.732;7.690;2022-09-06T14:02:03;30.90;99.90
61412;DHT22;47278;49.732;7.690;2022-09-06T14:04:30;30.60;99.90
61412;DHT22;47278;49.732;7.690;2022-09-06T14:06:57;31.10;99.90
61412;DHT22;47278;49.732;7.690;2022-09-06T14:09:23;30.80;99.90
61412;DHT22;47278;49.732;7.690;2022-09-06T14:11:49;30.90;99.90
61412;DHT22;47278;49.732;7.690;2022-09-06T14:14:15;30.90;99.90
61412;DHT22;47278;49.732;7.690;2022-09-06T14:16:42;31.30;99.90
61412;DHT22;47278;49.732;7.690;2022-09-06T14:19:07;31.30;99.90
61412;DHT22;47278;49.732;7.690;2022-09-06T14:21:33;31.50;99.90
61412;DHT22;47278;49.732;7.690;2022-09-06T14:23:58;31.70;99.90
61412;DHT22;47278;49.732;7.690;2022-09-06T14:26:24;31.60;99.90
61412;DHT22;47278;49.732;7.690;2022-09-06T14:28:50;31.50;99.90
61412;DHT22;47278;49.732;7.690;2022-09-06T14:31:17;31.30;99.90
61412;DHT22;47278;49.732;7.690;2022-09-06T14:33:43;31.40;99.90
61412;DHT22;47278;49.732;7.690;2022-09-06T14:36:13;31.50;99.90
61412;DHT22;47278;49.732;7.690;2022-09-06T14:38:41;31.50;99.90
61412;DHT22;47278;49.732;7.690;2022-09-06T14:41:08;31.70;99.90
61412;DHT22;47278;49.732;7.690;2022-09-06T14:43:34;31.90;99.90
61412;DHT22;47278;49.732;7.690;2022-09-06T14:46:08;31.90;99.90
61412;DHT22;47278;49.732;7.690;2022-09-06T14:48:35;31.80;99.90
61412;DHT22;47278;49.732;7.690;2022-09-06T14:51:18;31.80;99.90
61412;DHT22;47278;49.732;7.690;2022-09-06T14:53:49;31.90;99.90
61412;DHT22;47278;49.732;7.690;2022-09-06T14:56:14;31.70;99.90
61412;DHT22;47278;49.732;7.690;2022-09-06T14:58:40;32.60;99.90
61412;DHT22;47278;49.732;7.690;2022-09-06T15:01:13;33.00;99.90
61412;DHT22;47278;49.732;7.690;2022-09-06T15:03:39;33.70;99.90
61412;DHT22;47278;49.732;7.690;2022-09-06T15:06:06;34.20;99.90
61412;DHT22;47278;49.732;7.690;2022-09-06T15:08:32;35.90;99.90
61412;DHT22;47278;49.732;7.690;2022-09-06T15:10:57;34.70;99.90
61412;DHT22;47278;49.732;7.690;2022-09-06T15:13:24;32.30;99.90
61412;DHT22;47278;49.732;7.690;2022-09-06T15:15:51;31.10;99.90
61412;DHT22;47278;49.732;7.690;2022-09-06T15:18:17;30.40;99.90
61412;DHT22;47278;49.732;7.690;2022-09-06T15:20:43;30.20;99.90
61412;DHT22;47278;49.732;7.690;2022-09-06T15:23:09;29.90;99.90
61412;DHT22;47278;49.732;7.690;2022-09-06T15:25:35;29.60;99.90
61412;DHT22;47278;49.732;7.690;2022-09-06T15:28:01;29.70;99.90
61412;DHT22;47278;49.732;7.690;2022-09-06T15:30:26;30.90;99.90
61412;DHT22;47278;49.732;7.690;2022-09-06T15:32:52;30.60;99.90
61412;DHT22;47278;49.732;7.690;2022-09-06T15:35:17;30.00;99.90
61412;DHT22;47278;49.732;7.690;2022-09-06T15:37:43;30.20;99.90
61412;DHT22;47278;49.732;7.690;2022-09-06T15:40:09;27.40;99.90
61412;DHT22;47278;49.732;7.690;2022-09-06T15:42:35;25.80;99.90
61412;DHT22;47278;49.732;7.690;2022-09-06T15:45:01;24.90;99.90
61412;DHT22;47278;49.732;7.690;2022-09-06T15:47:26;24.10;99.90
61412;DHT22;47278;49.732;7.690;2022-09-06T15:49:52;23.80;99.90
61412;DHT22;47278;49.732;7.690;2022-09-06T15:52:17;23.80;99.90
61412;DHT22;47278;49.732;7.690;2022-09-06T15:54:43;23.40;99.90
61412;DHT22;47278;49.732;7.690;2022-09-06T15:57:27;23.30;99.90
61412;DHT22;47278;49.732;7.690;2022-09-06T15:59:53;23.30;99.90
61412;DHT22;47278;49.732;7.690;2022-09-06T16:02:22;21.30;99.90
61412;DHT22;47278;49.732;7.690;2022-09-06T16:04:47;23.40;99.90
61412;DHT22;47278;49.732;7.690;2022-09-06T16:07:13;23.30;99.90
61412;DHT22;47278;49.732;7.690;2022-09-06T16:09:38;24.30;99.90
61412;DHT22;47278;49.732;7.690;2022-09-06T16:12:04;24.00;99.90
61412;DHT22;47278;49.732;7.690;2022-09-06T16:14:30;23.80;99.90
61412;DHT22;47278;49.732;7.690;2022-09-06T16:16:56;23.80;99.90
61412;DHT22;47278;49.732;7.690;2022-09-06T16:19:21;23.80;99.90
61412;DHT22;47278;49.732;7.690;2022-09-06T16:21:47;23.70;99.90
61412;DHT22;47278;49.732;7.690;2022-09-06T16:24:13;23.80;99.90
61412;DHT22;47278;49.732;7.690;2022-09-06T16:26:42;23.70;99.90
61412;DHT22;47278;49.732;7.690;2022-09-06T16:29:08;23.60;99.90
61412;DHT22;47278;49.732;7.690;2022-09-06T16:31:34;23.60;99.90
61412;DHT22;47278;49.732;7.690;2022-09-06T16:34:00;24.70;99.90
61412;DHT22;47278;49.732;7.690;2022-09-06T16:36:26;24.60;99.90
61412;DHT22;47278;49.732;7.690;2022-09-06T16:38:52;24.30;99.90
61412;DHT22;47278;49.732;7.690;2022-09-06T16:41:24;25.00;99.90
61412;DHT22;47278;49.732;7.690;2022-09-06T16:43:50;25.10;99.90
61412;DHT22;47278;49.732;7.690;2022-09-06T16:46:19;23.50;99.90
61412;DHT22;47278;49.732;7.690;2022-09-06T16:48:52;24.10;99.90
61412;DHT22;47278;49.732;7.690;2022-09-06T16:51:18;24.00;99.90
61412;DHT22;47278;49.732;7.690;2022-09-06T16:53:44;23.80;99.90
61412;DHT22;47278;49.732;7.690;2022-09-06T16:56:11;23.00;99.90
61412;DHT22;47278;49.732;7.690;2022-09-06T16:58:37;24.60;99.90
61412;DHT22;47278;49.732;7.690;2022-09-06T17:01:04;24.20;99.90
61412;DHT22;47278;49.732;7.690;2022-09-06T17:03:29;23.90;99.90
61412;DHT22;47278;49.732;7.690;2022-09-06T17:05:55;23.80;99.90
61412;DHT22;47278;49.732;7.690;2022-09-06T17:08:21;23.70;99.90
61412;DHT22;47278;49.732;7.690;2022-09-06T17:10:47;23.50;99.90
61412;DHT22;47278;49.732;7.690;2022-09-06T17:13:12;23.40;99.90